tititudorancea.com
Station Historical Data
Daily Summary for May 9, 2018 Units:  Metric    English   Both
« Previous Day
Next Day »
Daily Weekly Monthly Yearly Custom
  High: Low: Average:
Temperature: -17.8 °C 4.1 °C 10.5 °C
Dew Point: -17.8 °C 3.1 °C 7.4 °C
Humidity: Humidity % 64 % 82 %
Wind Speed: 0 km/h 0 km/h 9.2 km/h
Wind Gust: 0 km/h - -
Wind:- - WNW
Pressure: 0 hPa 1011.7 hPa -
Precipitation: 10.67 mm    
Historical Graphs
 
 
Ararat weather Find more about Weather in Ararat, AU


 



 


Tabular Data for May 9, 2018
Time Temperature Dew Point Pressure Wind Wind Speed Wind Gust Humidity Rainfall Rate (Hourly)
-17.8 °C -17.8 °C 0 hPa Calm     Humidity % 0 mm
00:04 5.4 °C 4.2 °C 1020.2 hPa Calm     92 % 0 mm
00:09 5.3 °C 4.1 °C 1020.2 hPa Calm     92 % 0 mm
00:14 5.2 °C 4 °C 1019.9 hPa Calm     92 % 0 mm
00:19 5.1 °C 3.9 °C 1019.9 hPa Calm     92 % 0 mm
00:24 5 °C 3.8 °C 1019.9 hPa Calm     92 % 0 mm
00:29 4.9 °C 3.7 °C 1019.9 hPa Calm     92 % 0 mm
00:34 4.8 °C 3.6 °C 1019.9 hPa Calm     92 % 0 mm
00:39 4.7 °C 3.6 °C 1019.9 hPa Calm     92 % 0 mm
00:44 4.6 °C 3.4 °C 1019.9 hPa Calm     92 % 0 mm
00:49 4.5 °C 3.3 °C 1019.9 hPa Calm     92 % 0 mm
00:54 4.5 °C 3.3 °C 1019.9 hPa Calm     92 % 0 mm
00:59 4.4 °C 3.3 °C 1019.9 hPa Calm     92 % 0 mm
01:04 4.4 °C 3.4 °C 1019.9 hPa Calm     93 % 0 mm
01:09 4.4 °C 3.4 °C 1019.5 hPa Calm     93 % 0 mm
01:14 4.3 °C 3.2 °C 1019.5 hPa Calm     92 % 0 mm
01:19 4.3 °C 3.3 °C 1019.5 hPa Calm     93 % 0 mm
01:24 4.4 °C 3.3 °C 1019.5 hPa Calm     93 % 0 mm
01:29 4.4 °C 3.4 °C 1019.5 hPa Calm     93 % 0 mm
01:34 4.3 °C 3.3 °C 1019.9 hPa Calm     93 % 0 mm
01:39 4.3 °C 3.2 °C 1019.5 hPa Calm     93 % 0 mm
01:44 4.3 °C 3.2 °C 1019.9 hPa Calm     93 % 0 mm
01:49 4.3 °C 3.2 °C 1019.5 hPa Calm     93 % 0 mm
01:54 4.4 °C 3.3 °C 1019.5 hPa Calm     93 % 0 mm
01:59 4.4 °C 3.3 °C 1019.5 hPa Calm     93 % 0 mm
02:04 4.2 °C 3.2 °C 1019.5 hPa Calm     93 % 0 mm
02:09 4.1 °C 3.1 °C 1019.5 hPa Calm     93 % 0 mm
02:14 4.1 °C 3.1 °C 1019.5 hPa Calm     93 % 0 mm
02:19 4.2 °C 3.1 °C 1019.2 hPa North 3.5 km/h 5.6 km/h 93 % 0 mm
02:24 4.4 °C 3.5 °C 1019.2 hPa WNW 4.8 km/h 5.6 km/h 94 % 0 mm
02:29 4.8 °C 3.9 °C 1019.5 hPa North 4.3 km/h 5.6 km/h 94 % 0 mm
02:34 5.6 °C 4.8 °C 1019.5 hPa WNW 4.5 km/h 6.4 km/h 95 % 0 mm
02:39 5.9 °C 5 °C 1019.5 hPa WNW 6.4 km/h 7.4 km/h 94 % 0 mm
02:44 6.4 °C 5.7 °C 1019.2 hPa North 5 km/h 5.6 km/h 95 % 0 mm
02:45 6.5 °C 5.8 °C 1019.2 hPa WNW 5.3 km/h 5.6 km/h 95 % 0 mm
02:50 6.9 °C 6 °C 1019.2 hPa North 2.6 km/h 5.6 km/h 94 % 0 mm
02:55 7.2 °C 6.2 °C 1019.2 hPa WNW 2.9 km/h 3.7 km/h 93 % 0 mm
03:00 7.4 °C 6.2 °C 1019.2 hPa WNW 3.9 km/h 5.6 km/h 92 % 0 mm
03:05 7.5 °C 6.1 °C 1019.2 hPa WNW 2.1 km/h 3.7 km/h 91 % 0 mm
03:10 7.6 °C 6 °C 1019.2 hPa WNW 4.2 km/h 5.6 km/h 90 % 0 mm
03:15 7.6 °C 5.9 °C 1019.2 hPa North 3.1 km/h 6.4 km/h 89 % 0 mm
03:20 7.6 °C 5.8 °C 1019.2 hPa North 3.4 km/h 5.6 km/h 89 % 0 mm
03:25 7.5 °C 5.8 °C 1019.2 hPa North 3.9 km/h 5.6 km/h 89 % 0 mm
03:30 7.4 °C 5.7 °C 1018.8 hPa North 2.7 km/h 5.6 km/h 89 % 0 mm
03:35 7.3 °C 5.4 °C 1018.8 hPa WNW 3.1 km/h 5.6 km/h 88 % 0 mm
03:40 7.1 °C 5.4 °C 1018.8 hPa WNW 3.2 km/h 5.6 km/h 89 % 0 mm
03:45 7 °C 5.3 °C 1018.8 hPa WNW 4.3 km/h 5.6 km/h 89 % 0 mm
03:50 6.9 °C 5.2 °C 1018.8 hPa North 2.7 km/h 5.6 km/h 89 % 0 mm
03:55 6.8 °C 5.2 °C 1018.8 hPa WNW 2.4 km/h 4.8 km/h 89 % 0 mm
04:00 6.7 °C 5.1 °C 1018.8 hPa WNW 2.7 km/h 3.7 km/h 89 % 0 mm
04:05 6.7 °C 5.1 °C 1018.8 hPa North 2.7 km/h 5.6 km/h 89 % 0 mm
04:10 6.6 °C 4.9 °C 1018.8 hPa WNW 3.1 km/h 5.6 km/h 89 % 0 mm
04:15 6.6 °C 4.9 °C 1018.5 hPa WNW 1.9 km/h 3.7 km/h 89 % 0 mm
04:25 6.6 °C 5.1 °C 1018.5 hPa WNW 2.9 km/h 5.6 km/h 90 % 0 mm
04:30 6.7 °C 5.2 °C 1018.5 hPa WNW 4 km/h 5.6 km/h 90 % 0 mm
04:35 6.8 °C 5.3 °C 1018.5 hPa WNW 3.9 km/h 5.6 km/h 90 % 0 mm
04:40 6.8 °C 5.3 °C 1018.5 hPa WNW 4.3 km/h 8 km/h 90 % 0 mm
04:45 6.8 °C 5.3 °C 1018.8 hPa WNW 5 km/h 6.4 km/h 90 % 0 mm
04:50 6.7 °C 5.2 °C 1018.8 hPa WNW 6.4 km/h 9.3 km/h 90 % 0 mm
04:55 6.7 °C 5.2 °C 1018.8 hPa WNW 5.3 km/h 7.4 km/h 90 % 0 mm
05:00 6.7 °C 5.2 °C 1018.8 hPa WNW 5 km/h 7.4 km/h 90 % 0 mm
05:05 6.7 °C 5.2 °C 1018.8 hPa North 5.8 km/h 8 km/h 90 % 0 mm
05:10 6.6 °C 5.1 °C 1018.8 hPa WNW 5.8 km/h 7.4 km/h 90 % 0 mm
05:15 6.6 °C 5.1 °C 1018.8 hPa NW 7.6 km/h 11.1 km/h 90 % 0 mm
05:20 6.6 °C 5.1 °C 1018.8 hPa NW 6.9 km/h 9.3 km/h 90 % 0 mm
05:25 6.6 °C 5.2 °C 1018.8 hPa NW 7.9 km/h 13 km/h 91 % 0 mm
05:30 6.6 °C 5.2 °C 1018.8 hPa North 9.3 km/h 11.1 km/h 91 % 0 mm
05:35 6.6 °C 5.2 °C 1018.8 hPa NNW 7.7 km/h 11.1 km/h 91 % 0 mm
05:40 6.6 °C 5.1 °C 1018.8 hPa NNW 8.5 km/h 12.9 km/h 90 % 0 mm
05:45 6.6 °C 5.1 °C 1018.8 hPa NNW 8.4 km/h 11.1 km/h 90 % 0 mm
05:50 6.5 °C 5.1 °C 1018.8 hPa NNW 4.2 km/h 6.4 km/h 91 % 0 mm
05:55 6.5 °C 5.1 °C 1018.8 hPa North 3.9 km/h 5.6 km/h 91 % 0.25 mm
06:00 6.5 °C 5.1 °C 1018.8 hPa North 2.4 km/h 5.6 km/h 91 % 0.25 mm
06:05 6.6 °C 5.2 °C 1018.8 hPa North 4.3 km/h 6.4 km/h 91 % 0.25 mm
06:10 6.7 °C 5.3 °C 1018.8 hPa North 4 km/h 5.6 km/h 91 % 0.25 mm
06:15 6.9 °C 5.7 °C 1018.8 hPa NNW 3.9 km/h 5.6 km/h 92 % 0.25 mm
06:20 7.1 °C 5.7 °C 1018.8 hPa NNW 4 km/h 7.4 km/h 91 % 0.25 mm
06:25 7.3 °C 5.9 °C 1018.5 hPa NNW 7.1 km/h 8 km/h 91 % 0.25 mm
06:30 7.4 °C 6 °C 1018.5 hPa North 4.5 km/h 7.4 km/h 91 % 0.25 mm
06:35 7.5 °C 5.9 °C 1018.5 hPa North 6 km/h 7.4 km/h 90 % 0.25 mm
06:40 7.6 °C 6.1 °C 1018.8 hPa North 4.2 km/h 7.4 km/h 90 % 0.25 mm
06:45 7.7 °C 6.2 °C 1018.8 hPa North 4.5 km/h 9.3 km/h 90 % 0.25 mm
06:49 7.8 °C 6.2 °C 1018.8 hPa NNW 5.3 km/h 6.4 km/h 90 % 0.25 mm
06:54 7.8 °C 6.3 °C 1018.8 hPa NNW 6.1 km/h 7.4 km/h 90 % 0 mm
06:59 7.9 °C 6.2 °C 1018.8 hPa North 7.4 km/h 9.3 km/h 89 % 0 mm
07:04 7.9 °C 6.2 °C 1018.8 hPa North 6 km/h 7.4 km/h 89 % 0 mm
07:09 7.9 °C 6.2 °C 1018.8 hPa NNW 2.6 km/h 7.4 km/h 89 % 0 mm
07:14 7.9 °C 6.2 °C 1018.8 hPa NNW 4.7 km/h 7.4 km/h 89 % 0 mm
07:19 7.9 °C 6.2 °C 1018.8 hPa NNW 4.3 km/h 5.6 km/h 89 % 0 mm
07:24 8 °C 6.3 °C 1019.2 hPa NNW 5 km/h 7.4 km/h 89 % 0 mm
07:29 8 °C 6.3 °C 1019.2 hPa North 6.6 km/h 9.3 km/h 89 % 0 mm
07:34 8 °C 6.3 °C 1019.2 hPa North 6.3 km/h 8 km/h 89 % 0 mm
07:39 8.1 °C 6.3 °C 1019.2 hPa NNW 7.9 km/h 11.1 km/h 89 % 0 mm
07:44 8.2 °C 6.4 °C 1019.2 hPa North 9.5 km/h 11.1 km/h 89 % 0 mm
07:49 8.2 °C 6.5 °C 1019.2 hPa NNW 7.9 km/h 13 km/h 89 % 0 mm
07:54 8.2 °C 6.3 °C 1019.5 hPa NNW 9.8 km/h 13 km/h 88 % 0 mm
07:59 8.3 °C 6.4 °C 1019.5 hPa North 7.6 km/h 13 km/h 88 % 0 mm
08:04 8.3 °C 6.4 °C 1019.5 hPa North 7.1 km/h 13 km/h 88 % 0 mm
08:09 8.4 °C 6.6 °C 1019.5 hPa NNW 5.8 km/h 9.3 km/h 88 % 0 mm
08:14 8.6 °C 6.7 °C 1019.5 hPa North 8.2 km/h 9.3 km/h 88 % 0 mm
08:19 8.7 °C 6.8 °C 1019.5 hPa NNW 7.2 km/h 11.1 km/h 88 % 0 mm
08:24 8.8 °C 6.9 °C 1019.5 hPa North 6.4 km/h 11.1 km/h 88 % 0 mm
08:29 8.9 °C 6.9 °C 1019.5 hPa NNW 7.7 km/h 11.1 km/h 87 % 0 mm
08:34 9.1 °C 7 °C 1019.5 hPa North 6.9 km/h 9.3 km/h 87 % 0 mm
08:39 9.2 °C 7.1 °C 1019.2 hPa NNW 7.4 km/h 11.1 km/h 87 % 0 mm
08:44 9.3 °C 7.3 °C 1019.2 hPa NNW 9.3 km/h 9.3 km/h 87 % 0 mm
08:49 9.4 °C 7.4 °C 1019.2 hPa NNW 6 km/h 9.3 km/h 87 % 0 mm
08:54 9.5 °C 7.3 °C 1019.2 hPa North 8 km/h 9.3 km/h 86 % 0 mm
08:59 9.6 °C 7.3 °C 1019.2 hPa North 4.8 km/h 13 km/h 86 % 0 mm
09:04 9.7 °C 7.4 °C 1019.2 hPa North 5.1 km/h 5.6 km/h 86 % 0 mm
09:09 9.8 °C 7.6 °C 1019.2 hPa North 4.3 km/h 6.4 km/h 86 % 0 mm
09:14 10 °C 7.8 °C 1019.2 hPa North 6 km/h 7.4 km/h 86 % 0 mm
09:19 10.1 °C 7.7 °C 1019.2 hPa North 7.6 km/h 13 km/h 85 % 0 mm
09:24 10.3 °C 7.9 °C 1019.2 hPa North 5 km/h 5.6 km/h 85 % 0 mm
09:29 10.4 °C 8 °C 1018.8 hPa North 9.8 km/h 14.8 km/h 85 % 0 mm
09:34 10.5 °C 7.9 °C 1018.8 hPa North 7.4 km/h 11.1 km/h 84 % 0 mm
09:39 10.6 °C 8 °C 1018.8 hPa North 4 km/h 9.3 km/h 84 % 0 mm
09:44 10.8 °C 8.2 °C 1018.8 hPa North 11.1 km/h 11.3 km/h 84 % 0 mm
09:49 10.8 °C 8.1 °C 1018.8 hPa North 8.5 km/h 14.8 km/h 83 % 0 mm
09:54 10.9 °C 8.1 °C 1018.8 hPa North 9 km/h 9 km/h 83 % 0 mm
09:59 10.9 °C 8.1 °C 1018.5 hPa North 7.1 km/h 9.3 km/h 83 % 0 mm
10:04 11 °C 8.2 °C 1018.5 hPa North 8.7 km/h 12.9 km/h 83 % 0 mm
10:09 11.1 °C 8.3 °C 1018.5 hPa North 7.7 km/h 13 km/h 83 % 0 mm
10:14 11.2 °C 8.4 °C 1018.5 hPa North 8.2 km/h 13 km/h 83 % 0 mm
10:19 11.3 °C 8.4 °C 1018.5 hPa North 8 km/h 13 km/h 82 % 0 mm
10:24 11.4 °C 8.5 °C 1018.2 hPa North 7.6 km/h 11.3 km/h 82 % 0 mm
10:29 11.6 °C 8.6 °C 1018.2 hPa North 12.1 km/h 14.8 km/h 82 % 0 mm
10:34 11.7 °C 8.7 °C 1018.2 hPa North 11.1 km/h 16.1 km/h 82 % 0 mm
10:39 11.9 °C 8.7 °C 1018.2 hPa NNE 11.6 km/h 17.7 km/h 81 % 0 mm
10:45 12.2 °C 8.8 °C 1018.2 hPa NNE 14.8 km/h 14.8 km/h 80 % 0 mm
10:50 12.3 °C 8.7 °C 1018.2 hPa NNE 11.3 km/h 18.5 km/h 79 % 0 mm
10:55 12.3 °C 8.8 °C 1018.2 hPa NNE 12.2 km/h 20.4 km/h 79 % 0 mm
11:00 12.5 °C 8.9 °C 1017.8 hPa NNE 12.1 km/h 16.7 km/h 79 % 0 mm
11:05 12.7 °C 9.1 °C 1017.8 hPa NNE 12.6 km/h 14.5 km/h 79 % 0 mm
11:10 12.9 °C 9.2 °C 1017.8 hPa NNE 12.4 km/h 18.5 km/h 78 % 0 mm
11:15 13.2 °C 9.2 °C 1017.8 hPa NNE 10.6 km/h 14.8 km/h 77 % 0 mm
11:20 13.2 °C 9.1 °C 1017.8 hPa NNE 9.5 km/h 13 km/h 76 % 0 mm
11:25 13.3 °C 9.2 °C 1017.8 hPa NNE 9.5 km/h 13 km/h 76 % 0 mm
11:30 13.6 °C 9 °C 1017.5 hPa NNE 15.1 km/h 18.5 km/h 74 % 0 mm
11:35 13.8 °C 8.8 °C 1017.5 hPa NNE 11.4 km/h 18.5 km/h 72 % 0 mm
11:40 14.1 °C 8.7 °C 1017.5 hPa North 15.8 km/h 22.2 km/h 70 % 0 mm
11:45 14.3 °C 8.5 °C 1017.5 hPa NNW 12.4 km/h 19.3 km/h 68 % 0 mm
11:50 14.3 °C 8.5 °C 1017.5 hPa NNW 8.9 km/h 16.7 km/h 68 % 0 mm
11:55 14.3 °C 8.3 °C 1017.2 hPa NW 18 km/h 29.6 km/h 67 % 0 mm
12:00 14.7 °C 8.4 °C 1017.2 hPa WNW 18.3 km/h 25.9 km/h 66 % 0 mm
12:05 14.7 °C 8.4 °C 1016.8 hPa NW 12.4 km/h 18.5 km/h 66 % 0 mm
12:10 14.5 °C 8 °C 1016.8 hPa WNW 16.7 km/h 25.9 km/h 65 % 0 mm
12:15 14.2 °C 8.2 °C 1016.8 hPa NW 19.8 km/h 29.6 km/h 67 % 0 mm
12:20 14.2 °C 8.3 °C 1016.5 hPa NW 12.7 km/h 16.7 km/h 68 % 0 mm
12:25 14.3 °C 8.5 °C 1016.5 hPa WNW 5.3 km/h 12.9 km/h 68 % 0 mm
12:30 14.4 °C 8.6 °C 1016.5 hPa North 10.1 km/h 14.8 km/h 68 % 0 mm
12:35 14.4 °C 8.6 °C 1016.5 hPa North 5.8 km/h 14.8 km/h 68 % 0 mm
12:40 14.4 °C 8.4 °C 1016.1 hPa NW 14.3 km/h 18.5 km/h 67 % 0 mm
12:45 14.6 °C 8.5 °C 1016.1 hPa North 7.6 km/h 13 km/h 67 % 0 mm
12:50 14.8 °C 8.7 °C 1016.1 hPa North 15.1 km/h 22.5 km/h 67 % 0 mm
12:55 15.3 °C 8.9 °C 1015.8 hPa NW 7.7 km/h 14.8 km/h 66 % 0 mm
13:00 15.8 °C 9.3 °C 1015.8 hPa NNW 14.2 km/h 27.8 km/h 65 % 0 mm
13:05 16.1 °C 9.5 °C 1015.8 hPa North 12.1 km/h 18.5 km/h 65 % 0 mm
13:10 15.8 °C 9.1 °C 1015.8 hPa WNW 19 km/h 25.9 km/h 64 % 0 mm
13:15 15.2 °C 8.9 °C 1015.8 hPa WNW 14.8 km/h 18.5 km/h 66 % 0 mm
13:20 15 °C 8.9 °C 1015.8 hPa NW 18.3 km/h 31.5 km/h 67 % 0 mm
13:25 14.9 °C 9.1 °C 1015.8 hPa NW 16.1 km/h 22.2 km/h 68 % 0 mm
13:30 15.3 °C 9.4 °C 1015.8 hPa WNW 18.3 km/h 25.9 km/h 68 % 0 mm
13:33 15.4 °C 9.3 °C 1015.8 hPa WNW 13.2 km/h 18.5 km/h 67 % 0 mm
13:38 15.2 °C 9.1 °C 1015.8 hPa North 15.8 km/h 24.1 km/h 67 % 0 mm
13:43 14.9 °C 9.3 °C 1015.8 hPa NNW 6 km/h 11.1 km/h 69 % 0 mm
13:48 14.9 °C 9.2 °C 1015.8 hPa WNW 7.2 km/h 14.8 km/h 69 % 0 mm
13:53 14.8 °C 9.3 °C 1015.8 hPa NW 8 km/h 12.9 km/h 70 % 0 mm
13:58 14.8 °C 9.3 °C 1015.5 hPa North 16.6 km/h 19.3 km/h 70 % 0 mm
14:03 14.6 °C 9.4 °C 1015.5 hPa WNW 12.7 km/h 20.4 km/h 71 % 0 mm
14:08 14.6 °C 9.4 °C 1015.5 hPa WNW 15.4 km/h 20.4 km/h 71 % 0 mm
14:13 14.7 °C 9.5 °C 1015.5 hPa NW 11.7 km/h 19.3 km/h 71 % 0 mm
14:18 15.1 °C 9.7 °C 1015.1 hPa North 16.3 km/h 18.5 km/h 70 % 0 mm
14:23 15.4 °C 10 °C 1015.1 hPa WNW 13.8 km/h 20.4 km/h 70 % 0 mm
14:28 15.5 °C 9.4 °C 1015.1 hPa North 18.7 km/h 25.9 km/h 67 % 0 mm
14:33 15.4 °C 9.5 °C 1015.1 hPa North 11.4 km/h 24.1 km/h 68 % 0 mm
14:38 15.3 °C 9.4 °C 1015.1 hPa NW 17.1 km/h 24.1 km/h 68 % 0 mm
14:43 15.1 °C 9.4 °C 1015.1 hPa NW 12.2 km/h 18.5 km/h 69 % 0 mm
14:48 15.2 °C 9.3 °C 1014.8 hPa NW 16.9 km/h 25.9 km/h 68 % 0 mm
14:53 15.3 °C 9.2 °C 1014.8 hPa WNW 17.2 km/h 27.8 km/h 67 % 0 mm
14:58 15.3 °C 9.2 °C 1014.8 hPa NW 16.9 km/h 24.1 km/h 67 % 0 mm
15:03 15.2 °C 9.3 °C 1014.8 hPa NW 15.3 km/h 22.2 km/h 68 % 0 mm
15:08 15.2 °C 9.3 °C 1014.8 hPa NW 11.9 km/h 18.5 km/h 68 % 0 mm
15:13 15.1 °C 9.4 °C 1014.8 hPa WNW 15.8 km/h 20.4 km/h 69 % 0 mm
15:18 15.1 °C 9.4 °C 1014.8 hPa NW 10 km/h 14.8 km/h 69 % 0 mm
15:23 15.4 °C 9.5 °C 1014.8 hPa NW 16.7 km/h 24.1 km/h 68 % 0 mm
15:28 15.4 °C 9.5 °C 1014.8 hPa NW 15.1 km/h 22.2 km/h 68 % 0 mm
15:33 15.3 °C 9.4 °C 1014.4 hPa NW 14.6 km/h 22.2 km/h 68 % 0 mm
15:38 15.3 °C 9.4 °C 1014.4 hPa North 15.9 km/h 22.2 km/h 68 % 0 mm
15:43 15.3 °C 9.4 °C 1014.4 hPa NW 14.3 km/h 20.4 km/h 68 % 0 mm
15:48 15.3 °C 9.4 °C 1014.4 hPa NE 10.5 km/h 16.7 km/h 68 % 0 mm
15:53 15.3 °C 9.4 °C 1014.1 hPa North 12.7 km/h 20.4 km/h 68 % 0 mm
15:58 15.3 °C 9.4 °C 1014.1 hPa North 14.5 km/h 22.2 km/h 68 % 0 mm
16:03 15.3 °C 9.4 °C 1014.1 hPa NNW 12.6 km/h 19.3 km/h 68 % 0 mm
16:08 15.2 °C 9.3 °C 1014.1 hPa NW 19.6 km/h 24.1 km/h 68 % 0 mm
16:13 15.2 °C 9.3 °C 1014.1 hPa NW 15.4 km/h 22.2 km/h 68 % 0 mm
16:18 15.2 °C 9.3 °C 1014.1 hPa North 12.7 km/h 18.5 km/h 68 % 0 mm
16:23 15.1 °C 9.2 °C 1014.1 hPa North 17.1 km/h 22.2 km/h 68 % 0 mm
16:28 15 °C 9.1 °C 1013.8 hPa NNW 12.2 km/h 20.4 km/h 68 % 0 mm
16:33 15 °C 9.3 °C 1013.8 hPa North 9.2 km/h 14.8 km/h 69 % 0 mm
16:38 14.9 °C 9.3 °C 1013.8 hPa NNW 13.2 km/h 18.5 km/h 69 % 0 mm
16:43 14.9 °C 9.2 °C 1013.8 hPa NNW 10.9 km/h 14.8 km/h 69 % 0 mm
16:48 14.8 °C 9.4 °C 1013.8 hPa North 8.9 km/h 14.8 km/h 70 % 0 mm
16:53 14.8 °C 9.3 °C 1013.8 hPa NW 12.6 km/h 18.5 km/h 70 % 0 mm
16:58 14.7 °C 9.3 °C 1013.8 hPa NNW 17.2 km/h 24.1 km/h 70 % 0 mm
17:03 14.7 °C 9.3 °C 1013.4 hPa NNW 15.4 km/h 27.8 km/h 70 % 0 mm
17:08 14.7 °C 9.3 °C 1013.4 hPa NW 10.1 km/h 14.8 km/h 70 % 0 mm
17:13 14.7 °C 9.1 °C 1013.4 hPa NW 9.8 km/h 14.8 km/h 69 % 0 mm
17:18 14.6 °C 9.2 °C 1013.4 hPa NW 24.8 km/h 35.2 km/h 70 % 0 mm
17:23 14.6 °C 9.4 °C 1013.4 hPa NW 21.4 km/h 29.6 km/h 71 % 0 mm
17:28 13.9 °C 9.7 °C 1013.1 hPa NW 15.1 km/h 20.4 km/h 76 % 0 mm
17:33 13.2 °C 9.8 °C 1013.1 hPa North 11.7 km/h 20.4 km/h 80 % 0 mm
17:38 13 °C 10 °C 1013.1 hPa NW 13.7 km/h 22.2 km/h 82 % 0 mm
17:43 12.9 °C 9.9 °C 1013.1 hPa NW 9 km/h 11.3 km/h 82 % 0 mm
17:48 13 °C 10 °C 1013.1 hPa North 6.8 km/h 13 km/h 82 % 0 mm
17:53 13.1 °C 9.9 °C 1012.8 hPa NNW 7.1 km/h 13 km/h 81 % 0 mm
17:58 13.2 °C 9.8 °C 1012.8 hPa NW 14 km/h 18.5 km/h 80 % 0 mm
18:03 13.3 °C 9.8 °C 1012.8 hPa NNW 9.5 km/h 16.7 km/h 79 % 0 mm
18:08 13.4 °C 9.9 °C 1012.8 hPa North 10.3 km/h 18.5 km/h 79 % 0 mm
18:13 13.5 °C 9.7 °C 1012.8 hPa NW 7.4 km/h 18.5 km/h 78 % 0 mm
18:18 13.6 °C 9.8 °C 1012.4 hPa NNW 7.9 km/h 13 km/h 78 % 0 mm
18:23 13.6 °C 9.7 °C 1012.8 hPa NNW 10.6 km/h 14.8 km/h 77 % 0 mm
18:28 13.7 °C 9.7 °C 1012.8 hPa NW 9 km/h 14.8 km/h 77 % 0 mm
18:33 13.7 °C 9.7 °C 1012.8 hPa NW 11.3 km/h 18.5 km/h 77 % 0 mm
18:37 13.7 °C 9.6 °C 1012.8 hPa NW 12.9 km/h 18.5 km/h 76 % 0 mm
18:42 13.8 °C 9.6 °C 1012.8 hPa NW 15.3 km/h 20.4 km/h 76 % 0 mm
18:47 13.8 °C 9.5 °C 1012.8 hPa North 12.2 km/h 18.5 km/h 75 % 0 mm
18:52 13.9 °C 9.4 °C 1012.4 hPa NNW 12.7 km/h 18.5 km/h 74 % 0 mm
18:57 13.9 °C 9.4 °C 1012.8 hPa North 9.8 km/h 18.5 km/h 74 % 0 mm
19:02 13.8 °C 9.5 °C 1012.4 hPa NNW 10.9 km/h 14.8 km/h 75 % 0 mm
19:07 13.8 °C 9.5 °C 1012.4 hPa North 12.2 km/h 18.5 km/h 75 % 0 mm
19:12 13.9 °C 9.6 °C 1012.4 hPa NW 19.2 km/h 27.8 km/h 75 % 0 mm
19:17 14 °C 9.4 °C 1012.1 hPa NNW 16.1 km/h 22.2 km/h 74 % 0 mm
19:22 14.1 °C 9.7 °C 1012.1 hPa NW 10.1 km/h 22.2 km/h 75 % 0 mm
19:27 14.1 °C 9.7 °C 1012.1 hPa NW 16.6 km/h 25.9 km/h 75 % 0 mm
19:32 14.1 °C 9.7 °C 1012.1 hPa NW 17.9 km/h 25.9 km/h 75 % 0 mm
19:37 14.1 °C 9.7 °C 1012.1 hPa NNW 15.9 km/h 18.5 km/h 75 % 0 mm
19:42 14.1 °C 9.7 °C 1012.4 hPa NW 15.8 km/h 25.9 km/h 75 % 0 mm
19:47 14 °C 9.8 °C 1012.4 hPa NW 10.6 km/h 16.7 km/h 76 % 0 mm
19:52 14 °C 9.8 °C 1012.1 hPa NW 9.7 km/h 20.9 km/h 76 % 0 mm
19:57 14.1 °C 9.9 °C 1012.1 hPa North 13 km/h 19.3 km/h 76 % 0 mm
20:02 14.1 °C 9.9 °C 1012.1 hPa NW 13.5 km/h 24.1 km/h 76 % 0 mm
20:07 14.1 °C 9.9 °C 1012.1 hPa NW 12.2 km/h 14.8 km/h 76 % 0 mm
20:12 14 °C 10.1 °C 1012.1 hPa North 7.6 km/h 11.1 km/h 77 % 0 mm
20:17 13.8 °C 10.1 °C 1012.1 hPa North 8.2 km/h 11.1 km/h 78 % 0 mm
20:22 13.6 °C 10.1 °C 1012.1 hPa North 8.4 km/h 13 km/h 79 % 0.25 mm
20:27 13.3 °C 10.2 °C 1012.1 hPa NNW 9.7 km/h 14.8 km/h 81 % 0.51 mm
20:32 13.1 °C 10.2 °C 1012.1 hPa North 10.1 km/h 16.7 km/h 83 % 0.51 mm
20:37 12.8 °C 10.2 °C 1012.1 hPa NNW 8.4 km/h 11.3 km/h 84 % 1.02 mm
20:42 12.6 °C 10.2 °C 1012.1 hPa North 8.9 km/h 11.1 km/h 85 % 1.27 mm
20:47 12.4 °C 10.3 °C 1012.4 hPa NW 7.9 km/h 9.3 km/h 87 % 1.78 mm
20:52 12.3 °C 10.3 °C 1012.4 hPa NW 9.5 km/h 13 km/h 88 % 2.54 mm
20:57 12.2 °C 10.4 °C 1012.8 hPa WSW 10.6 km/h 13 km/h 89 % 3.3 mm
21:02 11.4 °C 9.3 °C 1013.1 hPa SW 16.6 km/h 22.2 km/h 87 % 5.08 mm
21:07 10.7 °C 8.8 °C 1012.8 hPa North 17.1 km/h 24.1 km/h 88 % 6.35 mm
21:12 10.3 °C 8.6 °C 1013.1 hPa SW 17.4 km/h 27.8 km/h 89 % 7.11 mm
21:17 10.1 °C 8.5 °C 1012.8 hPa North 13.5 km/h 18.5 km/h 90 % 7.87 mm
21:22 9.8 °C 8.3 °C 1012.8 hPa SW 22.7 km/h 25.9 km/h 90 % 7.87 mm
21:27 9.8 °C 8.2 °C 1013.1 hPa SW 15.6 km/h 18.5 km/h 90 % 7.87 mm
21:32 9.7 °C 8.1 °C 1013.1 hPa SW 12.6 km/h 16.7 km/h 90 % 8.38 mm
21:37 9.6 °C 8.2 °C 1012.8 hPa SW 14.6 km/h 18.5 km/h 91 % 8.38 mm
21:42 9.5 °C 8.1 °C 1012.8 hPa SW 11.3 km/h 17.7 km/h 91 % 8.38 mm
21:47 9.4 °C 8.1 °C 1012.8 hPa SW 13.7 km/h 20.9 km/h 91 % 8.13 mm
21:52 9.4 °C 7.9 °C 1012.8 hPa WSW 15 km/h 20.4 km/h 90 % 7.62 mm
21:57 9.5 °C 7.8 °C 1012.8 hPa WSW 13.2 km/h 18.5 km/h 89 % 6.86 mm
21:58 9.5 °C 7.8 °C 1012.8 hPa WSW 12.2 km/h 16.7 km/h 89 % 6.6 mm
22:03 9.5 °C 7.8 °C 1012.8 hPa WSW 8.7 km/h 11.1 km/h 89 % 4.83 mm
22:08 9.6 °C 7.7 °C 1012.8 hPa WSW 9.8 km/h 14.5 km/h 88 % 3.56 mm
22:13 9.6 °C 7.7 °C 1012.8 hPa WSW 14.5 km/h 18.5 km/h 88 % 3.05 mm
22:18 9.7 °C 7.5 °C 1012.8 hPa WSW 13 km/h 16.7 km/h 86 % 2.29 mm
22:23 9.8 °C 7.4 °C 1012.8 hPa WSW 11.7 km/h 22.2 km/h 85 % 2.03 mm
22:28 9.9 °C 7.3 °C 1012.4 hPa WSW 11.6 km/h 22.2 km/h 84 % 1.52 mm
22:49 9.7 °C 7.4 °C 1012.4 hPa WSW 7.4 km/h 7.4 km/h 86 % 1.27 mm
22:54 9.6 °C 7.4 °C 1011.7 hPa WSW 2.6 km/h 3.7 km/h 86 % 1.02 mm
22:59 9.6 °C 7.5 °C 1012.1 hPa WSW 4.7 km/h 5.6 km/h 87 % 0.51 mm
23:04 9.5 °C 7.4 °C 1012.1 hPa WSW 6.6 km/h 7.4 km/h 87 % 0.51 mm
23:09 9.6 °C 7.6 °C 1012.4 hPa WSW 8.4 km/h 18.5 km/h 87 % 0.25 mm
23:14 9.9 °C 7.7 °C 1012.4 hPa WSW 19.3 km/h 25.9 km/h 86 % 0.25 mm
23:19 10 °C 7.8 °C 1012.4 hPa WSW 14.8 km/h 25.9 km/h 86 % 0.25 mm
23:24 10 °C 7.8 °C 1012.4 hPa WSW 12.9 km/h 18.5 km/h 86 % 0.25 mm
23:29 10 °C 7.6 °C 1012.4 hPa North 21.6 km/h 29.6 km/h 85 % 0.25 mm
23:34 9.9 °C 7.6 °C 1012.1 hPa WSW 11.6 km/h 14.8 km/h 85 % 0.25 mm
23:39 9.8 °C 7.6 °C 1012.1 hPa WSW 13 km/h 18.5 km/h 86 % 0.25 mm
23:44 9.8 °C 7.6 °C 1012.1 hPa WSW 14.2 km/h 16.7 km/h 86 % 0.25 mm
23:49 9.8 °C 7.4 °C 1012.1 hPa West 12.7 km/h 14.8 km/h 85 % 0.25 mm
23:54 9.8 °C 7.4 °C 1012.1 hPa WSW 11.7 km/h 18.5 km/h 85 % 0 mm
23:59 9.9 °C 7.5 °C 1012.1 hPa West 9.2 km/h 14.8 km/h 85 % 0 mm
Ararat Weather
Compliments of Weather Underground - 2.25 mb
Click here to send mail.


ABOUT

Live weather data from Ararat, Victoria, Australia, 3377
Data uploaded from Cumulus every 5 minutes to Weather Underground.
This site then downloads the raw data for formatting and display.
Metric and imperial data can be displayed. Graphs and historical data available.
Includes Sun and Moon times and rain image live from BOM.

Check out Ararat Weather on Facebook, Twitter and Google +

Help support ongoing costs by checking out the ads





Follow @AraratWeather